Time;durP1;ratioP1;P1;durP2;ratioP2;P2;SDS_P1;SDS_P2;PMS_P1;PMS_P2;Temp;Humidity;BMP_temperature;BMP_pressure;BME280_temperature;BME280_humidity;BME280_pressure;Samples;Min_cycle;Max_cycle;Signal;HPM_P1;HPM_P2
2022/04/20 00:04:17;;;;;;;5.45;3.95;;;;;;;7.61;95.15;101564.84;10418230;28;20401;-62
2022/04/20 00:09:20;;;;;;;6.70;3.40;;;;;;;7.58;94.91;101564.94;10417981;28;20412;-62
2022/04/20 00:14:22;;;;;;;6.72;3.75;;;;;;;7.50;92.99;101565.19;10417564;28;20607;-62
2022/04/20 00:19:24;;;;;;;4.68;3.17;;;;;;;7.41;96.64;101568.09;10417661;28;20053;-62
2022/04/20 00:24:27;;;;;;;5.32;3.47;;;;;;;7.20;96.75;101570.47;10433701;28;20057;-62
2022/04/20 00:29:29;;;;;;;4.95;3.63;;;;;;;7.13;97.74;101571.56;10417224;28;20420;-62
2022/04/20 00:34:31;;;;;;;4.32;3.90;;;;;;;7.07;97.59;101569.97;10417003;28;20053;-62
2022/04/20 00:39:36;;;;;;;6.15;4.60;;;;;;;6.96;99.47;101566.00;10417101;28;20045;-62
2022/04/20 00:44:40;;;;;;;5.03;4.25;;;;;;;7.01;98.02;101566.72;10417635;28;20080;-62
2022/04/20 00:49:43;;;;;;;5.00;4.15;;;;;;;6.90;98.97;101571.41;10416907;28;20124;-62
2022/04/20 00:54:45;;;;;;;6.70;4.22;;;;;;;6.95;98.40;101575.56;10415419;28;20045;-63
2022/04/20 00:59:49;;;;;;;5.43;4.75;;;;;;;7.07;94.98;101580.41;10415291;28;20049;-63
2022/04/20 01:04:51;;;;;;;7.00;4.60;;;;;;;7.18;95.43;101581.84;10431573;28;20416;-63
2022/04/20 01:09:53;;;;;;;6.93;4.32;;;;;;;7.00;97.99;101585.84;10415809;28;20049;-62
2022/04/20 01:14:56;;;;;;;4.70;4.03;;;;;;;6.87;97.18;101581.00;10416539;28;20045;-63
2022/04/20 01:19:58;;;;;;;9.07;4.35;;;;;;;6.75;98.41;101578.75;10414381;28;20487;-62
2022/04/20 01:25:00;;;;;;;7.65;3.63;;;;;;;6.70;100.00;101571.06;10416032;28;20049;-62
2022/04/20 01:30:04;;;;;;;4.80;4.13;;;;;;;6.60;100.00;101580.03;10414834;28;20512;-62
2022/04/20 01:35:08;;;;;;;4.88;4.45;;;;;;;6.43;100.00;101577.91;10415305;28;20412;-62
2022/04/20 01:40:10;;;;;;;5.50;4.50;;;;;;;6.60;100.00;101576.59;10414132;28;20056;-62
2022/04/20 01:45:13;;;;;;;5.65;4.72;;;;;;;6.57;98.86;101576.69;10414717;28;20138;-62
2022/04/20 01:50:15;;;;;;;6.35;4.97;;;;;;;6.27;100.00;101577.50;10414657;28;20049;-62
2022/04/20 01:55:18;;;;;;;7.50;4.22;;;;;;;6.34;100.00;101578.19;10413781;28;20404;-62
2022/04/20 02:00:20;;;;;;;7.05;5.00;;;;;;;6.17;100.00;101582.97;10415260;28;20049;-62
2022/04/20 02:05:22;;;;;;;5.03;4.40;;;;;;;6.30;100.00;101592.16;10415104;28;20136;-63
2022/04/20 02:10:25;;;;;;;4.97;4.50;;;;;;;6.08;100.00;101581.47;10414530;28;20053;-62
2022/04/20 02:15:28;;;;;;;7.53;4.85;;;;;;;6.06;100.00;101581.50;10414836;28;20052;-62
2022/04/20 02:20:30;;;;;;;8.13;5.13;;;;;;;6.08;100.00;101577.09;10413605;28;20064;-62
2022/04/20 02:25:32;;;;;;;6.32;4.97;;;;;;;6.36;98.84;101585.94;10414353;28;20052;-62
2022/04/20 02:30:34;;;;;;;7.72;5.05;;;;;;;5.94;100.00;101585.25;10414588;28;20069;-62
2022/04/20 02:35:37;;;;;;;5.68;4.57;;;;;;;5.89;100.00;101587.09;10414850;28;20041;-63
2022/04/20 02:40:40;;;;;;;6.05;4.78;;;;;;;5.81;100.00;101578.63;10429901;28;20077;-62
2022/04/20 02:45:42;;;;;;;7.75;5.50;;;;;;;5.93;100.00;101587.88;10414689;28;20056;-62
2022/04/20 02:50:46;;;;;;;6.85;5.15;;;;;;;5.66;100.00;101584.22;10414178;28;20132;-63
2022/04/20 02:55:48;;;;;;;7.82;4.47;;;;;;;5.78;100.00;101591.69;10415930;28;20059;-62
2022/04/20 03:00:50;;;;;;;6.03;4.45;;;;;;;5.89;100.00;101589.69;10421540;28;20053;-62
2022/04/20 03:05:53;;;;;;;4.95;4.35;;;;;;;5.58;100.00;101589.59;10421102;28;20049;-62
2022/04/20 03:10:56;;;;;;;7.85;5.57;;;;;;;5.67;100.00;101591.13;10406236;28;20523;-62
2022/04/20 03:15:59;;;;;;;7.53;4.70;;;;;;;5.59;100.00;101594.75;10421049;28;20057;-62
2022/04/20 03:21:01;;;;;;;6.22;5.22;;;;;;;5.55;100.00;101597.47;10420073;28;20045;-62
2022/04/20 03:26:04;;;;;;;7.63;5.03;;;;;;;5.59;100.00;101594.75;10420397;28;20081;-62
2022/04/20 03:31:06;;;;;;;8.57;5.90;;;;;;;5.59;100.00;101606.91;10420341;28;20057;-63
2022/04/20 03:36:10;;;;;;;7.50;5.28;;;;;;;5.47;100.00;101605.44;10420148;28;20049;-62
2022/04/20 03:41:12;;;;;;;9.45;4.63;;;;;;;5.46;100.00;101614.09;10418781;28;20045;-62
2022/04/20 03:46:15;;;;;;;6.45;5.57;;;;;;;5.39;100.00;101612.53;10434955;28;20054;-63
2022/04/20 03:51:17;;;;;;;5.32;4.82;;;;;;;5.28;100.00;101615.41;10419708;28;20060;-62
2022/04/20 03:56:19;;;;;;;7.22;5.50;;;;;;;5.24;100.00;101618.94;10419403;28;20064;-63
2022/04/20 04:01:22;;;;;;;5.80;5.20;;;;;;;5.18;100.00;101619.94;10419100;28;20052;-63
2022/04/20 04:06:24;;;;;;;7.75;6.22;;;;;;;5.26;100.00;101624.97;10418723;28;20049;-62
2022/04/20 04:11:26;;;;;;;7.03;5.55;;;;;;;5.25;100.00;101623.25;10418259;28;20067;-62
2022/04/20 04:16:28;;;;;;;9.55;5.30;;;;;;;5.07;100.00;101631.44;10417968;28;20386;-62
2022/04/20 04:21:33;;;;;;;6.05;5.05;;;;;;;4.98;100.00;101635.09;10418327;28;20049;-62
2022/04/20 04:26:36;;;;;;;6.28;5.10;;;;;;;5.05;100.00;101641.84;10418100;28;20041;-62
2022/04/20 04:31:42;;;;;;;7.93;5.50;;;;;;;5.19;100.00;101638.94;10417897;28;20072;-62
2022/04/20 04:36:45;;;;;;;8.15;5.13;;;;;;;5.15;100.00;101645.94;10417920;28;20045;-62
2022/04/20 04:41:50;;;;;;;5.90;4.60;;;;;;;5.26;100.00;101643.16;10417402;28;20057;-62
2022/04/20 04:52:13;;;;;;;6.53;5.68;;;;;;;5.25;100.00;101641.41;10416451;28;20053;-62
2022/04/20 04:57:16;;;;;;;6.25;4.88;;;;;;;5.43;100.00;101647.97;10416899;28;20049;-62
2022/04/20 05:02:18;;;;;;;7.93;5.95;;;;;;;5.20;100.00;101646.72;10416986;28;20057;-62
2022/04/20 05:07:22;;;;;;;8.40;5.57;;;;;;;5.35;100.00;101648.13;10431120;28;20115;-62
2022/04/20 05:12:24;;;;;;;10.48;5.60;;;;;;;5.52;100.00;101660.72;10415708;28;20064;-62
2022/04/20 05:17:26;;;;;;;7.18;6.18;;;;;;;5.41;100.00;101665.31;10416063;28;20046;-62
2022/04/20 05:22:29;;;;;;;6.53;4.95;;;;;;;5.55;100.00;101665.03;10415503;28;20492;-62
2022/04/20 05:27:31;;;;;;;9.98;5.75;;;;;;;5.76;100.00;101666.25;10447424;22;20053;-63
2022/04/20 05:32:33;;;;;;;9.18;5.82;;;;;;;5.95;100.00;101670.13;10457232;28;20045;-63
2022/04/20 05:42:59;;;;;;;8.33;6.47;;;;;;;6.51;98.36;101672.22;10457227;28;20127;-62
2022/04/20 05:48:01;;;;;;;8.35;5.15;;;;;;;6.29;100.00;101681.47;10455904;28;20299;-62
2022/04/20 05:53:03;;;;;;;6.82;5.28;;;;;;;6.55;100.00;101670.38;10456341;28;20049;-62
2022/04/20 05:58:06;;;;;;;6.57;4.97;;;;;;;6.81;91.59;101667.09;10456366;28;20049;-63
2022/04/20 06:03:08;;;;;;;7.72;5.57;;;;;;;6.95;100.00;101660.63;10455386;28;20056;-62
2022/04/20 06:08:10;;;;;;;5.78;5.15;;;;;;;7.31;97.19;101657.84;10455622;28;20041;-62
2022/04/20 06:13:13;;;;;;;9.32;5.05;;;;;;;7.13;87.70;101644.50;10455906;28;20480;-63
2022/04/20 06:18:15;;;;;;;8.98;5.28;;;;;;;7.42;87.60;101650.56;10456334;28;20052;-63
2022/04/20 06:23:20;;;;;;;5.13;4.43;;;;;;;7.77;89.12;101646.03;10456092;28;20064;-63
2022/04/20 06:28:25;;;;;;;6.40;5.20;;;;;;;7.84;85.11;101644.91;10455355;28;20224;-62
2022/04/20 06:33:27;;;;;;;6.18;4.53;;;;;;;7.91;84.97;101649.00;10460850;28;20048;-63
2022/04/20 06:38:30;;;;;;;6.05;5.43;;;;;;;8.24;85.92;101645.31;10463823;28;20045;-63
2022/04/20 06:43:33;;;;;;;11.50;6.03;;;;;;;8.39;87.30;101644.81;10463563;28;20060;-62
2022/04/20 06:48:36;;;;;;;10.50;4.35;;;;;;;8.82;81.41;101650.31;10462568;28;20128;-63
2022/04/20 06:58:59;;;;;;;6.90;4.03;;;;;;;9.46;77.49;101663.56;10462250;28;20056;-63
2022/04/20 07:04:01;;;;;;;3.80;3.40;;;;;;;9.37;75.13;101652.63;10462918;28;20053;-63
2022/04/20 07:09:04;;;;;;;5.28;3.58;;;;;;;10.15;70.81;101657.28;10460623;28;20395;-63
2022/04/20 07:14:06;;;;;;;4.10;3.70;;;;;;;10.27;74.91;101652.47;10462498;28;20064;-63
2022/04/20 07:19:08;;;;;;;4.80;3.53;;;;;;;10.99;67.02;101658.97;10462320;28;20053;-63
2022/04/20 07:24:11;;;;;;;8.57;3.72;;;;;;;11.07;67.86;101662.94;10461725;28;20055;-63
2022/04/20 07:29:13;;;;;;;3.65;2.72;;;;;;;11.87;63.36;101661.78;10460673;28;20055;-63
2022/04/20 07:34:15;;;;;;;5.78;3.40;;;;;;;12.18;60.64;101664.69;10461439;28;20049;-63
2022/04/20 07:39:18;;;;;;;4.50;3.58;;;;;;;12.55;60.79;101660.19;10461290;28;20060;-62
2022/04/20 07:44:20;;;;;;;6.50;3.10;;;;;;;12.24;57.39;101672.28;10460862;28;20053;-62
2022/04/20 07:54:43;;;;;;;5.75;2.80;;;;;;;13.77;58.26;101670.25;10461034;28;20054;-62
2022/04/20 07:59:46;;;;;;;3.63;3.05;;;;;;;14.75;56.55;101662.78;10460176;28;20420;-62
2022/04/20 08:04:49;;;;;;;5.03;3.00;;;;;;;14.06;53.75;101663.28;10460365;28;20057;-62
2022/04/20 08:09:51;;;;;;;4.32;3.10;;;;;;;15.22;54.76;101672.16;10459241;28;20396;-62
2022/04/20 08:14:54;;;;;;;6.03;2.35;;;;;;;14.21;52.42;101671.25;10459226;28;20503;-62
2022/04/20 08:19:56;;;;;;;3.00;2.80;;;;;;;14.34;53.94;101676.63;10459192;28;20051;-62
2022/04/20 08:25:02;;;;;;;3.15;2.85;;;;;;;15.52;51.32;101669.38;10457566;28;20543;-62
2022/04/20 08:30:06;;;;;;;9.25;2.70;;;;;;;16.19;50.07;101673.84;10459330;28;20048;-63
2022/04/20 08:35:08;;;;;;;3.30;2.72;;;;;;;14.93;49.23;101666.94;10458182;28;20079;-62
2022/04/20 08:40:16;;;;;;;3.03;2.80;;;;;;;16.04;49.14;101673.06;10458502;28;20071;-63
2022/04/20 08:45:20;;;;;;;3.63;3.10;;;;;;;16.72;48.21;101669.28;10458764;28;20053;-63
2022/04/20 08:50:24;;;;;;;7.65;3.28;;;;;;;16.31;49.39;101675.63;10458437;28;20051;-68
2022/04/20 08:55:27;;;;;;;3.60;2.42;;;;;;;17.26;49.66;101677.91;10456568;28;20045;-68
2022/04/20 09:00:29;;;;;;;5.80;3.10;;;;;;;17.22;48.42;101673.81;10457197;28;20041;-68
2022/04/20 09:05:34;;;;;;;3.38;3.08;;;;;;;17.17;46.83;101675.94;10456860;28;20056;-67
2022/04/20 09:10:37;;;;;;;5.18;3.20;;;;;;;17.71;48.77;101661.44;10457824;28;20403;-68
2022/04/20 09:15:40;;;;;;;3.75;2.35;;;;;;;18.46;44.13;101652.28;10457867;28;20179;-68
2022/04/20 09:20:43;;;;;;;6.93;2.58;;;;;;;18.65;43.89;101668.47;10455693;28;20041;-68
2022/04/20 09:25:51;;;;;;;4.43;2.50;;;;;;;19.48;44.09;101664.56;10456030;28;20061;-68
2022/04/20 09:30:57;;;;;;;5.85;2.30;;;;;;;19.34;44.39;101659.53;10456628;28;20140;-68
2022/04/20 09:36:00;;;;;;;3.08;2.25;;;;;;;19.75;41.78;101657.13;10456209;28;20053;-68
2022/04/20 09:41:07;;;;;;;6.80;2.40;;;;;;;20.53;42.44;101644.38;10454796;28;20061;-68
2022/04/20 09:51:44;;;;;;;4.32;2.10;;;;;;;21.22;38.78;101635.66;10415694;28;20080;-68
2022/04/20 09:56:46;;;;;;;6.30;2.28;;;;;;;21.15;38.61;101635.38;10414388;28;20046;-68
2022/04/20 10:01:49;;;;;;;4.63;2.25;;;;;;;21.65;38.08;101628.28;10422218;28;20048;-69
2022/04/20 10:06:51;;;;;;;4.57;2.30;;;;;;;21.76;39.24;101616.66;10474966;28;20402;-69
2022/04/20 10:11:53;;;;;;;6.30;2.00;;;;;;;22.75;35.75;101608.25;10499846;28;20450;-69
2022/04/20 10:16:58;;;;;;;6.47;2.38;;;;;;;21.25;37.35;101608.75;10462904;28;20071;-69
2022/04/20 10:22:03;;;;;;;5.95;2.53;;;;;;;21.28;38.14;101605.81;10463342;28;20049;-69
2022/04/20 10:27:36;;;;;;;6.20;2.47;;;;;;;21.45;36.00;101595.44;10462355;28;20051;-69
2022/04/20 10:32:46;;;;;;;2.80;2.10;;;;;;;22.20;36.46;101596.50;10452214;28;20048;-69
2022/04/20 10:38:11;;;;;;;2.08;1.92;;;;;;;21.96;35.04;101599.66;10462788;28;20068;-69
2022/04/20 10:43:21;;;;;;;8.93;2.42;;;;;;;20.59;35.11;101598.59;10459077;28;20060;-69
2022/04/20 10:48:23;;;;;;;6.25;2.58;;;;;;;22.27;35.05;101578.94;10461311;28;20040;-69
2022/04/20 10:53:29;;;;;;;6.05;2.85;;;;;;;23.37;34.05;101576.41;10461255;28;20049;-69
2022/04/20 10:58:31;;;;;;;3.17;2.00;;;;;;;24.93;33.47;101572.00;10458801;28;20056;-69
2022/04/20 11:03:58;;;;;;;5.38;2.45;;;;;;;24.75;33.14;101565.94;10463002;28;20052;-69
2022/04/20 11:09:00;;;;;;;6.07;2.15;;;;;;;23.51;34.47;101570.50;10462581;28;20044;-70
2022/04/20 11:19:49;;;;;;;8.48;2.08;;;;;;;24.54;32.74;101542.22;10460561;28;20052;-61
2022/04/20 11:25:02;;;;;;;7.00;2.20;;;;;;;24.90;31.48;101542.88;10461541;28;20480;-62
2022/04/20 11:30:06;;;;;;;3.20;2.00;;;;;;;25.32;32.72;101536.56;10461386;28;20048;-61
2022/04/20 11:35:11;;;;;;;2.95;2.10;;;;;;;23.45;33.50;101530.19;10460656;28;20072;-62
2022/04/20 11:40:14;;;;;;;6.15;2.28;;;;;;;25.25;31.86;101515.94;10461177;28;20095;-62
2022/04/20 11:45:32;;;;;;;4.75;3.03;;;;;;;23.42;33.24;101518.00;10460699;28;20488;-62
2022/04/20 11:50:35;;;;;;;7.75;2.33;;;;;;;24.45;32.48;101523.44;10459032;28;20393;-62
2022/04/20 11:55:48;;;;;;;3.95;2.33;;;;;;;24.61;30.78;101522.72;10460370;28;20407;-62
2022/04/20 12:01:00;;;;;;;5.35;2.42;;;;;;;26.81;29.73;101512.84;10460278;28;20115;-62
2022/04/20 12:06:05;;;;;;;2.58;1.80;;;;;;;27.17;30.58;101517.66;10421353;28;20136;-62
2022/04/20 12:11:09;;;;;;;3.67;2.20;;;;;;;26.76;31.47;101515.22;10459193;28;20052;-62
2022/04/20 12:16:13;;;;;;;2.60;2.40;;;;;;;24.60;32.55;101502.28;10460083;28;20056;-62
2022/04/20 12:21:35;;;;;;;4.25;2.35;;;;;;;26.42;30.67;101492.25;10459616;28;20143;-62
2022/04/20 12:26:41;;;;;;;3.55;2.03;;;;;;;26.79;30.53;101488.84;10458162;28;20056;-62
2022/04/20 12:31:45;;;;;;;6.90;2.30;;;;;;;24.20;32.21;101479.69;10458555;28;20464;-62
2022/04/20 12:36:53;;;;;;;5.05;1.92;;;;;;;24.62;33.33;101489.56;10457487;28;20076;-62
2022/04/20 12:42:14;;;;;;;2.90;2.65;;;;;;;24.09;30.97;101479.97;10458498;28;20045;-62
2022/04/20 12:47:17;;;;;;;4.05;2.40;;;;;;;26.67;32.50;101479.53;10458983;28;20048;-62
2022/04/20 12:52:25;;;;;;;4.22;2.17;;;;;;;25.98;31.53;101479.34;10458862;28;20052;-62
2022/04/20 13:03:04;;;;;;;3.80;2.88;;;;;;;23.83;34.50;101474.69;10458421;28;20053;-61
2022/04/20 13:08:07;;;;;;;8.85;2.78;;;;;;;26.20;31.11;101467.84;10468873;28;20044;-61
2022/04/20 13:13:10;;;;;;;10.15;2.72;;;;;;;24.98;31.01;101451.81;10489914;28;20057;-62
2022/04/20 13:18:12;;;;;;;2.35;2.15;;;;;;;26.38;31.28;101456.84;10498012;28;20055;-62
2022/04/20 13:23:15;;;;;;;3.10;2.55;;;;;;;26.53;29.53;101451.56;10471206;28;20053;-62
2022/04/20 13:28:17;;;;;;;7.05;3.67;;;;;;;26.84;30.17;101445.34;10454149;28;20053;-62
2022/04/20 13:33:21;;;;;;;2.60;2.40;;;;;;;26.50;31.29;101441.19;10456453;28;20419;-62
2022/04/20 13:38:23;;;;;;;5.35;2.40;;;;;;;26.20;32.02;101432.13;10456358;28;20045;-62
2022/04/20 13:43:25;;;;;;;14.20;2.97;;;;;;;26.70;30.92;101433.53;10456378;28;20502;-61
2022/04/20 13:48:28;;;;;;;4.13;2.50;;;;;;;26.56;30.46;101429.72;10456765;28;20049;-62
2022/04/20 13:53:31;;;;;;;3.03;2.13;;;;;;;27.46;30.35;101433.56;10445349;28;20144;-61
2022/04/20 13:58:36;;;;;;;9.95;2.45;;;;;;;26.43;31.65;101427.63;10447666;28;20045;-61
2022/04/20 14:03:38;;;;;;;5.10;2.20;;;;;;;26.64;29.49;101424.31;10446066;28;20068;-61
2022/04/20 14:08:42;;;;;;;11.55;2.70;;;;;;;26.86;31.00;101419.13;10448420;28;20134;-61
2022/04/20 14:13:44;;;;;;;5.47;2.17;;;;;;;28.50;30.39;101409.19;10449592;28;20048;-61
2022/04/20 14:18:46;;;;;;;3.72;2.25;;;;;;;28.04;29.78;101404.16;10448544;28;20412;-60
2022/04/20 14:23:49;;;;;;;7.85;2.17;;;;;;;26.42;30.55;101406.34;10448668;28;20504;-61
2022/04/20 14:34:13;;;;;;;5.50;1.98;;;;;;;27.27;29.53;101389.19;10446722;28;20488;-61
2022/04/20 14:39:15;;;;;;;2.28;1.65;;;;;;;27.42;29.03;101387.38;10448989;28;20049;-61
2022/04/20 14:44:17;;;;;;;3.45;1.60;;;;;;;27.27;29.29;101381.13;10449004;28;20059;-61
2022/04/20 14:49:20;;;;;;;4.72;1.40;;;;;;;27.15;29.10;101393.34;10442066;28;20085;-61
2022/04/20 14:54:22;;;;;;;2.45;1.17;;;;;;;26.28;30.43;101384.59;10450742;28;20060;-61
2022/04/20 14:59:24;;;;;;;3.00;1.42;;;;;;;26.45;31.71;101376.44;10456173;28;20045;-61
2022/04/20 15:04:28;;;;;;;2.75;1.60;;;;;;;24.14;32.69;101373.38;10455400;28;20480;-61
2022/04/20 15:09:30;;;;;;;2.30;1.33;;;;;;;26.01;31.52;101366.31;10455775;28;20072;-61
2022/04/20 15:14:32;;;;;;;1.90;1.77;;;;;;;25.15;30.29;101363.38;10454268;28;20053;-61
2022/04/20 15:19:34;;;;;;;3.25;1.60;;;;;;;25.85;30.48;101351.94;10455711;28;20433;-61
2022/04/20 15:24:37;;;;;;;2.35;1.23;;;;;;;25.42;31.06;101361.34;10454386;28;20053;-61
2022/04/20 15:29:39;;;;;;;3.42;1.40;;;;;;;25.10;31.77;101366.59;10454457;28;20052;-61
2022/04/20 15:34:42;;;;;;;5.10;2.03;;;;;;;23.85;33.46;101353.19;10454321;28;20569;-61
2022/04/20 15:39:48;;;;;;;3.72;2.15;;;;;;;23.78;33.31;101352.16;10455540;28;20123;-61
2022/04/20 15:44:57;;;;;;;4.55;2.17;;;;;;;23.57;33.57;101360.59;10459374;28;20048;-61
2022/04/20 15:50:00;;;;;;;5.68;2.40;;;;;;;22.99;34.86;101356.69;10484330;28;20124;-61
2022/04/20 16:00:24;;;;;;;3.53;2.20;;;;;;;21.84;35.61;101350.25;10460580;28;20045;-61
2022/04/20 16:05:26;;;;;;;2.85;1.70;;;;;;;21.86;37.68;101341.09;10459693;28;20403;-61
2022/04/20 16:10:29;;;;;;;8.65;2.10;;;;;;;22.63;36.41;101348.75;10460477;28;20052;-61
2022/04/20 16:15:32;;;;;;;4.80;1.60;;;;;;;20.63;39.95;101342.00;10460072;28;20052;-61
2022/04/20 16:20:34;;;;;;;5.57;1.70;;;;;;;21.41;37.71;101349.00;10459667;28;20048;-61
2022/04/20 16:25:37;;;;;;;3.10;1.75;;;;;;;20.65;38.63;101349.84;10459389;28;20092;-61
2022/04/20 16:30:40;;;;;;;1.50;1.40;;;;;;;20.57;39.59;101346.00;10458959;28;20423;-60
2022/04/20 16:35:42;;;;;;;2.03;1.60;;;;;;;20.58;40.60;101338.88;10459195;28;20049;-60
2022/04/20 16:40:48;;;;;;;2.03;1.83;;;;;;;20.05;41.02;101342.75;10458211;28;20407;-60
2022/04/20 16:45:51;;;;;;;5.45;2.15;;;;;;;20.20;39.58;101341.38;10458453;28;20526;-60
2022/04/20 16:50:54;;;;;;;2.55;2.35;;;;;;;20.50;40.01;101339.59;10458279;28;20051;-60
2022/04/20 16:55:56;;;;;;;2.08;1.70;;;;;;;20.46;39.93;101329.34;10457835;28;20591;-60
2022/04/20 17:00:58;;;;;;;1.83;1.50;;;;;;;20.08;41.53;101334.50;10458243;28;20049;-60
2022/04/20 17:06:02;;;;;;;4.45;2.08;;;;;;;19.99;41.26;101333.50;10458368;28;20128;-60
2022/04/20 17:11:04;;;;;;;5.15;2.28;;;;;;;19.57;41.41;101330.97;10458163;28;20045;-60
2022/04/20 17:16:07;;;;;;;2.33;1.80;;;;;;;19.38;43.95;101333.53;10456473;28;20052;-60
2022/04/20 17:26:39;;;;;;;2.25;1.90;;;;;;;18.68;45.38;101338.53;10457128;28;20056;-60
2022/04/20 17:31:43;;;;;;;4.50;1.92;;;;;;;18.49;45.34;101331.22;10456165;28;20057;-60
2022/04/20 17:36:47;;;;;;;4.35;1.80;;;;;;;18.30;45.42;101335.41;10457297;28;20057;-59
2022/04/20 17:41:51;;;;;;;7.28;2.00;;;;;;;17.99;47.12;101337.88;10445712;22;20061;-65
2022/04/20 17:46:54;;;;;;;3.08;1.20;;;;;;;17.74;48.38;101338.13;10415249;28;20056;-65
2022/04/20 17:51:57;;;;;;;3.10;1.30;;;;;;;17.50;49.57;101336.47;10417456;28;20477;-65
2022/04/20 17:56:59;;;;;;;5.25;1.90;;;;;;;16.98;51.44;101330.72;10431443;28;20063;-65
2022/04/20 18:02:02;;;;;;;3.22;1.23;;;;;;;16.88;51.02;101335.88;10430171;28;19928;-65
2022/04/20 18:07:05;;;;;;;2.97;1.20;;;;;;;16.71;50.68;101341.56;10414874;28;20420;-65
2022/04/20 18:12:08;;;;;;;4.03;1.13;;;;;;;16.46;49.49;101348.66;10414777;28;20049;-65
2022/04/20 18:17:11;;;;;;;4.97;1.48;;;;;;;16.23;50.84;101349.50;10414091;28;20057;-65
2022/04/20 18:22:13;;;;;;;2.90;1.40;;;;;;;15.90;50.01;101358.88;10416837;28;20353;-65
2022/04/20 18:27:15;;;;;;;2.63;1.33;;;;;;;15.75;51.26;101360.78;10419209;28;20057;-65
2022/04/20 18:32:18;;;;;;;3.28;0.82;;;;;;;15.55;51.47;101352.47;10424200;28;20053;-65
2022/04/20 18:37:20;;;;;;;3.40;1.38;;;;;;;15.09;52.85;101363.53;10433657;28;20124;-65
2022/04/20 18:42:24;;;;;;;1.25;1.15;;;;;;;15.03;53.48;101369.22;10422528;28;20532;-65
2022/04/20 18:47:27;;;;;;;4.95;1.20;;;;;;;15.08;54.10;101377.69;10421907;28;20488;-65
2022/04/20 18:52:29;;;;;;;3.53;1.48;;;;;;;14.32;59.37;101392.22;10422285;28;20067;-65
2022/04/20 18:57:46;;;;;;;2.60;2.00;;;;;;;14.25;60.09;101385.66;10423131;28;20049;-65
2022/04/20 19:02:49;;;;;;;3.60;2.10;;;;;;;14.19;61.13;101393.94;10444718;28;20499;-65
2022/04/20 19:07:51;;;;;;;2.92;1.48;;;;;;;13.63;60.95;101383.38;10422187;28;20116;-64
2022/04/20 19:12:54;;;;;;;2.10;1.90;;;;;;;13.50;61.56;101380.63;10436766;28;20049;-65
2022/04/20 19:17:56;;;;;;;3.55;1.60;;;;;;;13.12;63.47;101387.22;10439050;28;20060;-65
2022/04/20 19:23:00;;;;;;;4.82;2.20;;;;;;;12.62;64.76;101396.22;10421096;28;20060;-64
2022/04/20 19:28:02;;;;;;;2.17;1.92;;;;;;;12.70;64.13;101399.28;10420970;28;20041;-64
2022/04/20 19:33:09;;;;;;;2.85;2.22;;;;;;;12.60;64.89;101398.09;10420354;28;20400;-65
2022/04/20 19:38:11;;;;;;;5.72;2.90;;;;;;;12.66;64.44;101394.28;10432571;28;20496;-64
2022/04/20 19:43:13;;;;;;;4.50;2.65;;;;;;;12.15;67.07;101397.09;10420692;28;20057;-64
2022/04/20 19:48:16;;;;;;;4.65;2.22;;;;;;;11.99;68.89;101410.22;10444507;28;20514;-64
2022/04/20 19:53:20;;;;;;;3.38;2.90;;;;;;;11.93;68.37;101410.53;10422393;28;20049;-65
2022/04/20 19:58:23;;;;;;;6.38;2.80;;;;;;;11.87;69.46;101398.56;10445655;28;20407;-64
2022/04/20 20:03:26;;;;;;;2.80;2.50;;;;;;;11.70;69.83;101408.16;10425335;28;20048;-64
2022/04/20 20:08:29;;;;;;;3.92;3.00;;;;;;;11.68;70.95;101404.78;10421219;28;20049;-64
2022/04/20 20:13:34;;;;;;;4.80;3.00;;;;;;;11.37;72.92;101402.03;10431279;28;20049;-64
2022/04/20 20:18:39;;;;;;;9.13;4.70;;;;;;;11.32;73.52;101404.88;10421127;28;20037;-64
2022/04/20 20:34:25;;;;;;;9.07;5.15;;;;;;;10.88;76.63;101397.47;10430072;28;20056;-62
2022/04/20 20:39:28;;;;;;;11.00;4.53;;;;;;;11.10;75.86;101403.34;10431383;28;20484;-62
2022/04/20 20:44:33;;;;;;;4.43;3.40;;;;;;;10.68;77.47;101395.84;10456579;28;20049;-62
2022/04/20 20:54:56;;;;;;;5.43;3.13;;;;;;;10.88;77.11;101405.34;10456330;28;20518;-62
2022/04/20 20:59:59;;;;;;;8.55;3.95;;;;;;;10.54;80.18;101406.94;10437730;28;20037;-62
2022/04/20 21:05:01;;;;;;;6.40;4.35;;;;;;;10.39;81.36;101403.31;10439966;28;20136;-62
2022/04/20 21:10:05;;;;;;;4.70;3.97;;;;;;;10.35;81.91;101406.97;10418202;28;20045;-62
2022/04/20 21:15:08;;;;;;;5.82;4.55;;;;;;;10.31;81.65;101400.16;10443343;28;20055;-62
2022/04/20 21:20:11;;;;;;;8.10;5.03;;;;;;;10.13;83.32;101392.22;10442644;28;20046;-62
2022/04/20 21:25:13;;;;;;;7.63;5.10;;;;;;;10.11;84.12;101396.69;10457118;28;20080;-62
2022/04/20 21:30:16;;;;;;;10.70;4.40;;;;;;;10.15;83.00;101387.75;10452468;28;20055;-62
2022/04/20 21:35:18;;;;;;;7.00;4.82;;;;;;;9.85;85.86;101390.88;10417377;28;20053;-62
2022/04/20 21:40:54;;;;;;;7.43;4.65;;;;;;;9.60;86.74;101401.56;10416818;28;20064;-61
2022/04/20 21:45:43;;;;;;;7.63;4.70;;;;;;;9.84;86.18;101394.41;10405717;28;20053;-62
2022/04/20 21:50:46;;;;;;;7.65;4.80;;;;;;;9.70;87.22;101409.00;10445138;28;20120;-62
2022/04/20 21:55:49;;;;;;;10.80;5.47;;;;;;;9.57;88.66;101403.47;10415691;28;20050;-62
2022/04/20 22:00:58;;;;;;;8.55;5.00;;;;;;;9.69;86.66;101400.31;10436833;28;20071;-62
2022/04/20 22:16:46;;;;;;;9.35;5.38;;;;;;;9.37;90.14;101405.16;10413559;28;20399;-62
2022/04/20 22:21:48;;;;;;;10.10;5.50;;;;;;;9.38;89.81;101409.50;10423928;28;20045;-61
2022/04/20 22:26:52;;;;;;;10.25;6.18;;;;;;;9.18;92.11;101404.25;10464064;28;20049;-61
2022/04/20 22:31:55;;;;;;;5.85;5.20;;;;;;;9.36;91.39;101406.06;10461586;28;20369;-61
2022/04/20 22:36:58;;;;;;;8.85;6.25;;;;;;;9.25;92.41;101403.94;10447605;28;20129;-61
2022/04/20 22:42:00;;;;;;;7.20;5.65;;;;;;;9.18;93.59;101404.25;10439241;28;20048;-61
2022/04/20 22:47:03;;;;;;;9.68;5.85;;;;;;;9.05;94.26;101401.31;10430319;28;20049;-61
2022/04/20 22:52:09;;;;;;;7.90;5.50;;;;;;;8.96;94.64;101392.09;10460459;28;20049;-61
2022/04/20 22:57:11;;;;;;;6.65;5.75;;;;;;;8.94;93.88;101391.28;10457822;28;20485;-61
2022/04/20 23:02:14;;;;;;;6.18;5.30;;;;;;;8.77;93.40;101393.75;10423657;28;20436;-61
2022/04/20 23:07:16;;;;;;;8.32;5.28;;;;;;;8.84;94.25;101395.19;10460187;28;20480;-61
2022/04/20 23:12:19;;;;;;;7.22;5.32;;;;;;;8.88;94.96;101396.78;10440643;28;20048;-61
2022/04/20 23:17:21;;;;;;;6.53;4.95;;;;;;;8.84;94.11;101398.66;10457564;28;20504;-62
2022/04/20 23:22:24;;;;;;;9.20;6.03;;;;;;;8.78;94.24;101398.06;10432546;28;20052;-61
2022/04/20 23:32:47;;;;;;;9.52;5.60;;;;;;;8.52;96.35;101408.63;10460485;28;20052;-61
2022/04/20 23:37:50;;;;;;;10.55;5.18;;;;;;;8.57;94.20;101403.19;10434094;28;20055;-61
2022/04/20 23:42:52;;;;;;;12.95;5.65;;;;;;;8.25;96.62;101407.03;10455372;28;20052;-62
2022/04/20 23:47:54;;;;;;;11.98;5.35;;;;;;;8.22;95.52;101402.78;10460443;28;20049;-61
2022/04/20 23:52:57;;;;;;;8.23;5.82;;;;;;;8.23;94.89;101398.41;10452300;28;20053;-62
2022/04/20 23:57:59;;;;;;;7.03;4.80;;;;;;;8.26;95.35;101400.91;10429888;28;20481;-62
